createdAt,value
2023-05-02T00:01:14.282Z,100922.72
2023-05-02T00:03:42.554Z,100929.47
2023-05-02T00:06:09.737Z,100919.91
2023-05-02T00:08:36.559Z,100927.31
2023-05-02T00:11:03.273Z,100930.44
2023-05-02T00:13:29.783Z,100938.22
2023-05-02T00:15:56.334Z,100939.50
2023-05-02T00:18:24.084Z,100939.91
2023-05-02T00:20:50.866Z,100947.72
2023-05-02T00:23:17.420Z,100947.09
2023-05-02T00:25:45.713Z,100939.44
2023-05-02T00:28:13.660Z,100940.28
2023-05-02T00:30:46.833Z,100949.63
2023-05-02T00:33:15.007Z,100946.44
2023-05-02T00:35:42.001Z,100947.44
2023-05-02T00:38:08.994Z,100949.78
2023-05-02T00:40:48.825Z,100952.53
2023-05-02T00:43:16.099Z,100943.16
2023-05-02T00:45:44.108Z,100942.22
2023-05-02T00:48:11.302Z,100944.41
2023-05-02T00:50:43.292Z,100938.97
2023-05-02T00:53:10.901Z,100945.41
2023-05-02T00:55:38.432Z,100943.03
2023-05-02T00:58:11.875Z,100940.66
2023-05-02T01:01:00.709Z,100946.75
2023-05-02T01:03:39.633Z,100956.09
2023-05-02T01:06:37.396Z,100947.44
2023-05-02T01:09:23.919Z,100957.44
2023-05-02T01:12:04.533Z,100955.25
2023-05-02T01:14:35.186Z,100959.16
2023-05-02T01:17:08.136Z,100959.28
2023-05-02T01:19:47.903Z,100959.91
2023-05-02T01:22:16.233Z,100964.66
2023-05-02T01:25:07.485Z,100959.94
2023-05-02T01:27:43.406Z,100967.13
2023-05-02T01:30:12.736Z,100970.69
2023-05-02T01:32:41.589Z,100974.78
2023-05-02T01:35:10.589Z,100969.75
2023-05-02T01:37:38.367Z,100974.44
2023-05-02T01:40:07.684Z,100978.91
2023-05-02T01:42:37.285Z,100978.06
2023-05-02T01:45:05.952Z,100988.81
2023-05-02T01:47:36.025Z,100989.09
2023-05-02T01:50:06.786Z,100980.59
2023-05-02T01:52:34.275Z,100991.75
2023-05-02T01:55:01.239Z,100988.19
2023-05-02T01:57:27.843Z,101001.50
2023-05-02T01:59:58.853Z,101001.50
2023-05-02T02:02:27.839Z,101009.47
2023-05-02T02:04:56.118Z,101006.06
2023-05-02T02:07:23.114Z,101014.91
2023-05-02T02:09:49.813Z,101007.25
2023-05-02T02:12:56.390Z,101013.19
2023-05-02T02:15:28.951Z,101019.66
2023-05-02T02:18:00.398Z,101015.66
2023-05-02T02:20:29.383Z,101019.09
2023-05-02T02:22:57.861Z,101026.00
2023-05-02T02:25:26.896Z,101023.34
2023-05-02T02:27:53.804Z,101022.34
2023-05-02T02:30:20.912Z,101020.91
2023-05-02T02:32:47.433Z,101026.25
2023-05-02T02:35:14.124Z,101037.03
2023-05-02T02:38:22.476Z,101034.75
2023-05-02T02:41:00.037Z,101026.44
2023-05-02T02:43:47.981Z,101032.44
2023-05-02T02:46:33.283Z,101035.75
2023-05-02T02:49:13.269Z,101041.81
2023-05-02T02:51:46.886Z,101034.47
2023-05-02T02:54:27.011Z,101039.22
2023-05-02T02:57:24.437Z,101032.53
2023-05-02T03:00:15.928Z,101039.03
2023-05-02T03:02:44.709Z,101043.06
2023-05-02T03:05:12.042Z,101042.97
2023-05-02T03:07:38.748Z,101046.44
2023-05-02T03:10:06.859Z,101044.66
2023-05-02T03:12:34.908Z,101048.13
2023-05-02T03:15:27.737Z,101042.66
2023-05-02T03:17:54.287Z,101051.88
2023-05-02T03:20:21.044Z,101048.06
2023-05-02T03:22:47.882Z,101045.69
2023-05-02T03:25:14.687Z,101051.03
2023-05-02T03:27:45.836Z,101059.03
2023-05-02T03:30:12.980Z,101053.38
2023-05-02T03:32:39.601Z,101049.31
2023-05-02T03:35:06.781Z,101057.69
2023-05-02T03:37:38.450Z,101062.00
2023-05-02T03:40:05.666Z,101059.91
2023-05-02T03:42:39.884Z,101076.50
2023-05-02T03:45:11.230Z,101065.63
2023-05-02T03:47:37.984Z,101072.00
2023-05-02T03:50:04.935Z,101079.16
2023-05-02T03:52:33.828Z,101079.78
2023-05-02T03:55:01.636Z,101079.84
2023-05-02T03:57:32.318Z,101088.38
2023-05-02T04:00:00.534Z,101087.81
2023-05-02T04:02:38.439Z,101097.94
2023-05-02T04:05:08.665Z,101097.19
2023-05-02T04:07:36.524Z,101104.28
2023-05-02T04:10:06.870Z,101101.13
2023-05-02T04:12:38.487Z,101106.03
2023-05-02T04:15:05.736Z,101105.97
2023-05-02T04:17:32.347Z,101109.81
2023-05-02T04:19:59.570Z,101109.03
2023-05-02T04:22:29.084Z,101108.00
2023-05-02T04:24:59.868Z,101114.41
2023-05-02T04:27:27.425Z,101114.63
2023-05-02T04:29:54.114Z,101124.47
2023-05-02T04:32:21.247Z,101115.88
2023-05-02T04:34:48.631Z,101120.25
2023-05-02T04:37:16.306Z,101129.81
2023-05-02T04:39:45.293Z,101122.19
2023-05-02T04:42:17.272Z,101135.41
2023-05-02T04:45:01.817Z,101140.59
2023-05-02T04:47:28.727Z,101150.38
2023-05-02T04:49:55.346Z,101153.66
2023-05-02T04:52:21.948Z,101155.78
2023-05-02T04:54:48.595Z,101162.97
2023-05-02T04:57:15.621Z,101181.41
2023-05-02T04:59:46.583Z,101180.06
2023-05-02T05:02:13.353Z,101182.72
2023-05-02T05:04:40.563Z,101193.63
2023-05-02T05:07:07.225Z,101188.44
2023-05-02T05:09:33.955Z,101180.00
2023-05-02T05:12:01.803Z,101191.28
2023-05-02T05:14:31.246Z,101196.78
2023-05-02T05:16:58.464Z,101205.38
2023-05-02T05:19:26.153Z,101212.59
2023-05-02T05:21:53.106Z,101209.16
2023-05-02T05:24:21.136Z,101210.28
2023-05-02T05:26:48.829Z,101220.59
2023-05-02T05:29:15.653Z,101227.66
2023-05-02T05:31:43.827Z,101230.25
2023-05-02T05:34:14.204Z,101226.34
2023-05-02T05:36:42.244Z,101235.22
2023-05-02T05:39:08.970Z,101229.91
2023-05-02T05:41:38.157Z,101233.22
2023-05-02T05:44:07.586Z,101227.19
2023-05-02T05:46:34.395Z,101236.66
2023-05-02T05:49:02.352Z,101243.66
2023-05-02T05:51:29.980Z,101249.63
2023-05-02T05:53:59.018Z,101241.88
2023-05-02T05:56:26.289Z,101250.88
2023-05-02T05:58:59.312Z,101258.41
2023-05-02T06:01:26.159Z,101259.00
2023-05-02T06:03:52.761Z,101259.13
2023-05-02T06:06:19.368Z,101265.69
2023-05-02T06:08:46.562Z,101272.50
2023-05-02T06:11:13.581Z,101271.53
2023-05-02T06:16:08.248Z,101274.19
2023-05-02T06:18:35.150Z,101270.63
2023-05-02T06:21:05.626Z,101278.88
2023-05-02T06:23:33.303Z,101277.88
2023-05-02T06:26:01.238Z,101287.09
2023-05-02T06:28:28.268Z,101284.94
2023-05-02T06:31:02.902Z,101285.63
2023-05-02T06:33:30.497Z,101285.88
2023-05-02T06:35:59.088Z,101301.25
2023-05-02T06:38:26.700Z,101296.75
2023-05-02T06:40:53.280Z,101306.00
2023-05-02T06:43:19.917Z,101306.63
2023-05-02T06:45:46.539Z,101317.91
2023-05-02T06:48:13.327Z,101319.25
2023-05-02T06:50:40.150Z,101323.88
2023-05-02T06:53:07.073Z,101337.72
2023-05-02T06:55:33.647Z,101342.91
2023-05-02T06:58:00.637Z,101343.88
2023-05-02T07:00:27.351Z,101339.53
2023-05-02T07:02:54.100Z,101341.91
2023-05-02T07:05:20.827Z,101357.47
2023-05-02T07:07:47.404Z,101367.94
2023-05-02T07:10:14.022Z,101378.97
2023-05-02T07:12:40.579Z,101379.38
2023-05-02T07:15:07.491Z,101387.03
2023-05-02T07:17:34.238Z,101381.03
2023-05-02T07:20:00.932Z,101402.00
2023-05-02T07:22:27.745Z,101403.75
2023-05-02T07:24:58.503Z,101415.41
2023-05-02T07:27:25.423Z,101411.84
2023-05-02T07:29:52.065Z,101418.25
2023-05-02T07:32:19.726Z,101429.22
2023-05-02T07:34:46.309Z,101417.75
2023-05-02T07:37:12.829Z,101426.34
2023-05-02T07:39:39.314Z,101424.16
2023-05-02T07:42:06.536Z,101437.09
2023-05-02T07:44:36.731Z,101438.03
2023-05-02T07:47:03.290Z,101444.66
2023-05-02T07:49:31.265Z,101449.66
2023-05-02T07:51:58.131Z,101451.78
2023-05-02T07:54:26.388Z,101460.16
2023-05-02T07:56:53.069Z,101459.69
2023-05-02T07:59:19.584Z,101473.84
2023-05-02T08:01:46.158Z,101475.69
2023-05-02T08:04:13.074Z,101469.38
2023-05-02T08:06:39.977Z,101482.53
2023-05-02T08:09:06.648Z,101476.81
2023-05-02T08:11:33.387Z,101485.50
2023-05-02T08:14:00.099Z,101490.16
2023-05-02T08:16:26.715Z,101484.94
2023-05-02T08:18:53.514Z,101496.66
2023-05-02T08:21:20.141Z,101502.69
2023-05-02T08:23:46.838Z,101508.84
2023-05-02T08:26:13.462Z,101499.03
2023-05-02T08:28:39.970Z,101503.00
2023-05-02T08:31:06.614Z,101513.97
2023-05-02T08:33:33.394Z,101510.94
2023-05-02T08:36:00.229Z,101509.03
2023-05-02T08:38:26.987Z,101520.19
2023-05-02T08:40:53.530Z,101527.44
2023-05-02T08:43:20.733Z,101543.00
2023-05-02T08:45:49.740Z,101548.66
2023-05-02T08:48:17.239Z,101547.31
2023-05-02T08:50:46.572Z,101539.53
2023-05-02T08:53:14.489Z,101548.59
2023-05-02T08:55:42.184Z,101546.06
2023-05-02T08:58:10.702Z,101553.81
2023-05-02T09:00:42.319Z,101566.09
2023-05-02T09:03:28.672Z,101563.75
2023-05-02T09:06:01.132Z,101567.44
2023-05-02T09:08:27.676Z,101572.31
2023-05-02T09:10:55.199Z,101573.56
2023-05-02T09:13:28.509Z,101573.72
2023-05-02T09:16:04.249Z,101569.66
2023-05-02T09:18:33.343Z,101571.06
2023-05-02T09:21:01.129Z,101570.66
2023-05-02T09:23:34.653Z,101579.94
2023-05-02T09:26:01.722Z,101582.84
2023-05-02T09:28:41.173Z,101583.78
2023-05-02T09:31:09.900Z,101581.22
2023-05-02T09:33:38.465Z,101589.13
2023-05-02T09:36:07.173Z,101588.81
2023-05-02T09:38:33.920Z,101601.00
2023-05-02T09:41:03.416Z,101601.72
2023-05-02T09:43:31.743Z,101601.09
2023-05-02T09:46:08.042Z,101605.91
2023-05-02T09:48:54.270Z,101603.06
2023-05-02T09:51:22.118Z,101605.72
2023-05-02T09:53:49.576Z,101615.75
2023-05-02T09:56:17.157Z,101620.56
2023-05-02T09:58:44.162Z,101618.41
2023-05-02T10:01:20.394Z,101619.34
2023-05-02T10:03:48.847Z,101630.06
2023-05-02T10:06:17.378Z,101622.13
2023-05-02T10:08:45.518Z,101625.31
2023-05-02T10:11:12.949Z,101617.94
2023-05-02T10:13:42.776Z,101632.78
2023-05-02T10:16:12.330Z,101624.59
2023-05-02T10:18:52.573Z,101630.81
2023-05-02T10:21:27.265Z,101635.94
2023-05-02T10:23:54.199Z,101632.03
2023-05-02T10:26:26.157Z,101633.75
2023-05-02T10:28:53.807Z,101638.63
2023-05-02T10:31:21.478Z,101636.75
2023-05-02T10:33:52.337Z,101632.47
2023-05-02T10:36:23.300Z,101630.13
2023-05-02T10:38:51.113Z,101625.09
2023-05-02T10:41:26.319Z,101631.72
2023-05-02T10:43:53.306Z,101621.03
2023-05-02T10:46:33.091Z,101627.84
2023-05-02T10:49:01.673Z,101636.13
2023-05-02T10:51:29.768Z,101639.59
2023-05-02T10:54:18.975Z,101633.31
2023-05-02T10:57:04.182Z,101633.16
2023-05-02T10:59:42.528Z,101634.75
2023-05-02T11:02:23.336Z,101618.94
2023-05-02T11:05:04.194Z,101621.16
2023-05-02T11:07:32.562Z,101627.34
2023-05-02T11:10:22.357Z,101627.59
2023-05-02T11:12:57.527Z,101630.25
2023-05-02T11:15:27.694Z,101637.44
2023-05-02T11:18:08.043Z,101639.22
2023-05-02T11:20:36.208Z,101637.34
2023-05-02T11:23:29.116Z,101646.22
2023-05-02T11:25:57.150Z,101643.72
2023-05-02T11:28:42.009Z,101652.69
2023-05-02T11:31:29.654Z,101656.16
2023-05-02T11:34:01.159Z,101653.41
2023-05-02T11:36:35.504Z,101660.56
2023-05-02T11:39:05.690Z,101658.31
2023-05-02T11:41:39.864Z,101660.81
2023-05-02T11:44:06.635Z,101660.97
2023-05-02T11:46:33.617Z,101658.94
2023-05-02T11:49:01.148Z,101661.75
2023-05-02T11:51:27.962Z,101653.91
2023-05-02T11:53:54.829Z,101660.41
2023-05-02T11:56:26.414Z,101658.94
2023-05-02T11:59:00.829Z,101675.81
2023-05-02T12:01:27.887Z,101669.91
2023-05-02T12:04:08.550Z,101668.38
2023-05-02T12:06:35.343Z,101671.66
2023-05-02T12:09:10.647Z,101684.03
2023-05-02T12:11:38.525Z,101676.13
2023-05-02T12:14:06.773Z,101674.19
2023-05-02T12:16:33.996Z,101682.19
2023-05-02T12:19:01.321Z,101681.03
2023-05-02T12:21:34.906Z,101688.00
2023-05-02T12:24:02.351Z,101686.59
2023-05-02T12:26:33.570Z,101687.84
2023-05-02T12:29:02.558Z,101690.75
2023-05-02T12:31:31.202Z,101687.44
2023-05-02T12:34:00.137Z,101695.47
2023-05-02T12:36:30.870Z,101711.06
2023-05-02T12:38:59.690Z,101701.09
2023-05-02T12:41:37.351Z,101699.44
2023-05-02T12:44:05.530Z,101702.78
2023-05-02T12:46:32.759Z,101688.84
2023-05-02T12:49:08.252Z,101693.16
2023-05-02T12:51:36.353Z,101697.41
2023-05-02T12:54:03.901Z,101704.44
2023-05-02T12:56:33.382Z,101701.31
2023-05-02T12:59:01.322Z,101708.19
2023-05-02T13:01:28.700Z,101705.72
2023-05-02T13:03:55.549Z,101708.16
2023-05-02T13:06:22.247Z,101715.31
2023-05-02T13:08:48.858Z,101705.63
2023-05-02T13:11:15.766Z,101703.97
2023-05-02T13:13:42.241Z,101718.00
2023-05-02T13:16:09.000Z,101716.09
2023-05-02T13:18:35.970Z,101720.16
2023-05-02T13:21:02.540Z,101720.75
2023-05-02T13:23:29.030Z,101724.56
2023-05-02T13:25:55.642Z,101719.53
2023-05-02T13:28:22.152Z,101711.19
2023-05-02T13:30:48.749Z,101708.97
2023-05-02T13:33:15.560Z,101714.81
2023-05-02T13:35:42.310Z,101717.41
2023-05-02T13:38:08.799Z,101703.34
2023-05-02T13:40:35.652Z,101709.13
2023-05-02T13:43:02.175Z,101701.50
2023-05-02T13:45:28.846Z,101706.25
2023-05-02T13:47:55.654Z,101707.44
2023-05-02T13:50:23.070Z,101701.72
2023-05-02T13:52:49.707Z,101711.69
2023-05-02T13:55:16.399Z,101714.91
2023-05-02T13:57:43.488Z,101708.59
2023-05-02T14:00:10.768Z,101715.97
2023-05-02T14:02:39.008Z,101720.38
2023-05-02T14:05:06.357Z,101711.44
2023-05-02T14:07:32.904Z,101714.53
2023-05-02T14:09:59.780Z,101715.44
2023-05-02T14:12:26.648Z,101720.31
2023-05-02T14:14:53.481Z,101718.84
2023-05-02T14:17:19.975Z,101711.84
2023-05-02T14:19:46.722Z,101714.75
2023-05-02T14:22:13.252Z,101709.63
2023-05-02T14:24:39.828Z,101711.44
2023-05-02T14:27:07.605Z,101713.78
2023-05-02T14:29:34.258Z,101711.81
2023-05-02T14:32:00.939Z,101718.75
2023-05-02T14:34:27.736Z,101720.00
2023-05-02T14:36:54.288Z,101716.97
2023-05-02T14:39:21.101Z,101721.84
2023-05-02T14:41:48.007Z,101718.22
2023-05-02T14:44:14.804Z,101717.63
2023-05-02T14:46:42.217Z,101716.53
2023-05-02T14:49:09.315Z,101716.41
2023-05-02T14:51:39.476Z,101716.97
2023-05-02T14:54:07.043Z,101716.59
2023-05-02T14:56:33.657Z,101717.94
2023-05-02T14:59:00.380Z,101713.25
2023-05-02T15:01:27.077Z,101706.88
2023-05-02T15:04:06.166Z,101714.97
2023-05-02T15:06:35.618Z,101712.75
2023-05-02T15:09:02.844Z,101711.63
2023-05-02T15:11:29.414Z,101718.56
2023-05-02T15:13:58.882Z,101725.72
2023-05-02T15:16:26.886Z,101721.97
2023-05-02T15:18:53.890Z,101718.91
2023-05-02T15:21:20.852Z,101715.63
2023-05-02T15:23:47.522Z,101718.28
2023-05-02T15:26:14.476Z,101724.69
2023-05-02T15:28:41.430Z,101720.44
2023-05-02T15:31:08.180Z,101716.88
2023-05-02T15:33:34.796Z,101718.94
2023-05-02T15:36:01.460Z,101722.91
2023-05-02T15:38:28.053Z,101721.06
2023-05-02T15:40:59.285Z,101717.53
2023-05-02T15:43:27.256Z,101715.47
2023-05-02T15:45:57.031Z,101724.81
2023-05-02T15:48:27.540Z,101723.06
2023-05-02T15:50:54.341Z,101733.25
2023-05-02T15:53:24.348Z,101734.22
2023-05-02T15:55:52.025Z,101735.63
2023-05-02T15:58:19.309Z,101746.25
2023-05-02T16:00:47.444Z,101739.53
2023-05-02T16:03:14.321Z,101749.00
2023-05-02T16:05:41.131Z,101745.72
2023-05-02T16:08:07.697Z,101742.97
2023-05-02T16:10:36.732Z,101742.13
2023-05-02T16:13:03.567Z,101742.78
2023-05-02T16:15:30.457Z,101743.09
2023-05-02T16:17:57.317Z,101749.59
2023-05-02T16:20:24.090Z,101753.66
2023-05-02T16:22:51.321Z,101750.94
2023-05-02T16:25:21.107Z,101754.44
2023-05-02T16:27:47.789Z,101751.94
2023-05-02T16:30:14.414Z,101750.88
2023-05-02T16:32:41.112Z,101752.81
2023-05-02T16:35:10.730Z,101756.59
2023-05-02T16:37:37.716Z,101756.00
2023-05-02T16:40:06.035Z,101757.63
2023-05-02T16:42:33.283Z,101759.34
2023-05-02T16:45:00.073Z,101767.22
2023-05-02T16:47:27.971Z,101764.06
2023-05-02T16:49:58.988Z,101769.88
2023-05-02T16:52:26.400Z,101757.31
2023-05-02T16:54:53.560Z,101758.03
2023-05-02T16:57:21.395Z,101767.28
2023-05-02T16:59:49.623Z,101764.22
2023-05-02T17:02:16.824Z,101766.66
2023-05-02T17:04:43.783Z,101770.75
2023-05-02T17:07:13.161Z,101768.16
2023-05-02T17:09:41.501Z,101767.63
2023-05-02T17:12:12.415Z,101768.28
2023-05-02T17:14:41.052Z,101763.72
2023-05-02T17:17:08.352Z,101763.25
2023-05-02T17:19:36.072Z,101756.06
2023-05-02T17:22:04.790Z,101760.47
2023-05-02T17:24:31.459Z,101766.28
2023-05-02T17:26:58.109Z,101760.41
2023-05-02T17:29:25.520Z,101757.16
2023-05-02T17:31:52.192Z,101764.50
2023-05-02T17:34:18.934Z,101767.94
2023-05-02T17:36:46.308Z,101774.41
2023-05-02T17:39:13.448Z,101778.78
2023-05-02T17:41:40.175Z,101776.34
2023-05-02T17:44:07.032Z,101772.25
2023-05-02T17:46:33.775Z,101780.13
2023-05-02T17:49:00.811Z,101778.56
2023-05-02T17:51:27.879Z,101786.03
2023-05-02T17:53:54.709Z,101786.41
2023-05-02T17:56:21.293Z,101785.63
2023-05-02T17:58:47.963Z,101785.38
2023-05-02T18:01:14.576Z,101783.84
2023-05-02T18:03:41.729Z,101792.91
2023-05-02T18:06:08.842Z,101791.81
2023-05-02T18:08:35.717Z,101794.66
2023-05-02T18:11:03.319Z,101792.41
2023-05-02T18:13:30.093Z,101797.19
2023-05-02T18:15:57.037Z,101798.34
2023-05-02T18:18:24.164Z,101792.19
2023-05-02T18:20:50.761Z,101787.06
2023-05-02T18:23:17.431Z,101788.31
2023-05-02T18:25:44.345Z,101788.97
2023-05-02T18:28:11.552Z,101789.03
2023-05-02T18:30:38.487Z,101799.50
2023-05-02T18:33:06.489Z,101792.53
2023-05-02T18:35:33.453Z,101807.06
2023-05-02T18:38:00.119Z,101797.09
2023-05-02T18:40:27.208Z,101798.16
2023-05-02T18:42:53.821Z,101816.13
2023-05-02T18:45:20.988Z,101813.50
2023-05-02T18:47:47.721Z,101808.75
2023-05-02T18:50:14.275Z,101810.84
2023-05-02T18:52:40.839Z,101812.78
2023-05-02T18:55:07.784Z,101804.91
2023-05-02T18:57:34.443Z,101800.25
2023-05-02T19:00:01.104Z,101811.97
2023-05-02T19:02:28.190Z,101819.59
2023-05-02T19:04:55.283Z,101815.81
2023-05-02T19:07:21.800Z,101824.34
2023-05-02T19:09:48.301Z,101839.09
2023-05-02T19:12:14.938Z,101830.06
2023-05-02T19:14:41.994Z,101831.53
2023-05-02T19:17:08.548Z,101831.38
2023-05-02T19:19:35.202Z,101833.69
2023-05-02T19:22:01.814Z,101839.72
2023-05-02T19:24:28.341Z,101837.41
2023-05-02T19:26:55.086Z,101838.16
2023-05-02T19:29:21.806Z,101846.31
2023-05-02T19:31:48.903Z,101847.97
2023-05-02T19:34:15.863Z,101851.34
2023-05-02T19:36:42.596Z,101858.56
2023-05-02T19:39:10.582Z,101851.53
2023-05-02T19:41:38.298Z,101862.72
2023-05-02T19:44:05.016Z,101864.25
2023-05-02T19:46:32.010Z,101854.84
2023-05-02T19:48:58.974Z,101861.53
2023-05-02T19:51:27.878Z,101862.78
2023-05-02T19:53:54.659Z,101857.84
2023-05-02T19:56:21.550Z,101872.41
2023-05-02T19:58:48.087Z,101880.13
2023-05-02T20:01:14.854Z,101873.06
2023-05-02T20:03:41.644Z,101877.41
2023-05-02T20:06:08.512Z,101869.59
2023-05-02T20:08:35.381Z,101873.81
2023-05-02T20:11:02.166Z,101877.38
2023-05-02T20:13:28.685Z,101887.13
2023-05-02T20:15:55.445Z,101886.81
2023-05-02T20:18:22.010Z,101892.66
2023-05-02T20:20:48.564Z,101893.25
2023-05-02T20:23:15.878Z,101897.69
2023-05-02T20:25:43.100Z,101908.22
2023-05-02T20:28:09.933Z,101892.53
2023-05-02T20:30:36.610Z,101894.38
2023-05-02T20:33:13.860Z,101890.91
2023-05-02T20:35:42.464Z,101885.91
2023-05-02T20:38:09.703Z,101894.84
2023-05-02T20:40:39.319Z,101900.50
2023-05-02T20:43:06.410Z,101892.00
2023-05-02T20:45:33.416Z,101893.06
2023-05-02T20:48:00.080Z,101903.19
2023-05-02T20:50:26.991Z,101898.97
2023-05-02T20:52:54.240Z,101913.47
2023-05-02T20:55:22.644Z,101902.81
2023-05-02T20:57:52.878Z,101905.09
2023-05-02T21:00:22.589Z,101911.44
2023-05-02T21:02:49.463Z,101909.16
2023-05-02T21:05:16.391Z,101908.91
2023-05-02T21:07:42.950Z,101902.38
2023-05-02T21:10:10.715Z,101907.50
2023-05-02T21:12:37.239Z,101906.84
2023-05-02T21:15:04.248Z,101902.47
2023-05-02T21:17:30.808Z,101904.16
2023-05-02T21:19:57.389Z,101913.41
2023-05-02T21:22:23.888Z,101909.88
2023-05-02T21:24:50.784Z,101914.09
2023-05-02T21:27:17.379Z,101910.44
2023-05-02T21:29:43.973Z,101910.00
2023-05-02T21:32:10.722Z,101905.16
2023-05-02T21:34:37.364Z,101908.31
2023-05-02T21:37:04.070Z,101906.34
2023-05-02T21:39:30.621Z,101911.19
2023-05-02T21:41:57.225Z,101926.69
2023-05-02T21:44:23.833Z,101920.50
2023-05-02T21:46:51.292Z,101920.84
2023-05-02T21:49:17.914Z,101913.97
2023-05-02T21:51:44.461Z,101912.19
2023-05-02T21:54:11.036Z,101923.56
2023-05-02T21:56:37.692Z,101911.53
2023-05-02T21:59:04.220Z,101917.63
2023-05-02T22:01:30.811Z,101914.00
2023-05-02T22:03:58.125Z,101912.88
2023-05-02T22:06:25.076Z,101918.47
2023-05-02T22:08:52.135Z,101913.56
2023-05-02T22:11:21.537Z,101921.91
2023-05-02T22:13:48.383Z,101909.69
2023-05-02T22:16:15.793Z,101915.44
2023-05-02T22:18:44.686Z,101919.50
2023-05-02T22:21:12.033Z,101922.06
2023-05-02T22:23:38.787Z,101920.78
2023-05-02T22:26:05.387Z,101925.63
2023-05-02T22:28:31.947Z,101925.00
2023-05-02T22:30:58.429Z,101932.97
2023-05-02T22:33:25.235Z,101934.81
2023-05-02T22:35:51.822Z,101936.25
2023-05-02T22:38:19.552Z,101933.94
2023-05-02T22:40:46.499Z,101933.38
2023-05-02T22:43:13.345Z,101932.09
2023-05-02T22:45:40.540Z,101932.91
2023-05-02T22:48:07.956Z,101943.25
2023-05-02T22:50:34.491Z,101938.47
2023-05-02T22:53:03.788Z,101939.72
2023-05-02T22:55:30.602Z,101937.97
2023-05-02T22:57:57.982Z,101935.59
2023-05-02T23:00:25.121Z,101940.16
2023-05-02T23:02:51.970Z,101936.47
2023-05-02T23:05:18.865Z,101943.44
2023-05-02T23:07:45.741Z,101943.34
2023-05-02T23:10:12.269Z,101940.00
2023-05-02T23:12:39.159Z,101926.16
2023-05-02T23:15:06.905Z,101927.97
2023-05-02T23:17:37.213Z,101929.16
2023-05-02T23:20:05.226Z,101929.78
2023-05-02T23:22:35.942Z,101929.78
2023-05-02T23:25:03.052Z,101918.69
2023-05-02T23:27:29.738Z,101918.72
2023-05-02T23:29:56.296Z,101928.53
2023-05-02T23:32:23.887Z,101929.69
2023-05-02T23:34:50.736Z,101923.59
2023-05-02T23:37:17.347Z,101921.31
2023-05-02T23:39:43.924Z,101922.16
2023-05-02T23:42:10.469Z,101924.53
2023-05-02T23:44:37.053Z,101916.75
2023-05-02T23:47:03.757Z,101914.28
2023-05-02T23:49:30.468Z,101907.63
2023-05-02T23:51:57.033Z,101900.69
2023-05-02T23:54:23.806Z,101910.38
2023-05-02T23:56:50.393Z,101910.75
2023-05-02T23:59:17.006Z,101905.66
